sensor_id;sensor_type;location;lat;lon;timestamp;pressure;altitude;pressure_sealevel;temperature;humidity
50166;BME280;36071;48.140;11.516;2022-07-30T00:02:02;95600.0;;;18.4;78.8
50166;BME280;36071;48.140;11.516;2022-07-30T00:07:02;95600.0;;;18.3;78.6
50166;BME280;36071;48.140;11.516;2022-07-30T00:12:02;95590.0;;;18.3;78.3
50166;BME280;36071;48.140;11.516;2022-07-30T00:17:02;95590.0;;;18.3;78.5
50166;BME280;36071;48.140;11.516;2022-07-30T00:22:02;95590.0;;;18.2;78.3
50166;BME280;36071;48.140;11.516;2022-07-30T00:27:02;95590.0;;;18.2;78.0
50166;BME280;36071;48.140;11.516;2022-07-30T00:32:02;95590.0;;;18.2;78.1
50166;BME280;36071;48.140;11.516;2022-07-30T00:37:02;95590.0;;;18.2;78.6
50166;BME280;36071;48.140;11.516;2022-07-30T00:42:03;95580.0;;;18.1;79.6
50166;BME280;36071;48.140;11.516;2022-07-30T00:52:02;95580.0;;;18.2;78.7
50166;BME280;36071;48.140;11.516;2022-07-30T00:57:02;95580.0;;;18.2;78.9
50166;BME280;36071;48.140;11.516;2022-07-30T01:02:02;95580.0;;;18.2;79.1
50166;BME280;36071;48.140;11.516;2022-07-30T01:07:02;95580.0;;;18.1;79.8
50166;BME280;36071;48.140;11.516;2022-07-30T01:12:02;95580.0;;;18.0;80.2
50166;BME280;36071;48.140;11.516;2022-07-30T01:17:03;95570.0;;;18.0;79.8
50166;BME280;36071;48.140;11.516;2022-07-30T01:22:11;95560.0;;;18.0;79.2
50166;BME280;36071;48.140;11.516;2022-07-30T01:27:02;95560.0;;;18.0;79.4
50166;BME280;36071;48.140;11.516;2022-07-30T01:32:02;95570.0;;;17.9;79.0
50166;BME280;36071;48.140;11.516;2022-07-30T01:37:02;95550.0;;;17.9;78.6
50166;BME280;36071;48.140;11.516;2022-07-30T01:42:02;95560.0;;;18.0;78.0
50166;BME280;36071;48.140;11.516;2022-07-30T01:47:02;95560.0;;;18.0;77.8
50166;BME280;36071;48.140;11.516;2022-07-30T01:52:02;95560.0;;;18.0;77.6
50166;BME280;36071;48.140;11.516;2022-07-30T01:57:02;95550.0;;;17.9;77.3
50166;BME280;36071;48.140;11.516;2022-07-30T02:02:02;95560.0;;;18.0;77.4
50166;BME280;36071;48.140;11.516;2022-07-30T02:07:03;95550.0;;;17.8;77.2
50166;BME280;36071;48.140;11.516;2022-07-30T02:12:03;95550.0;;;17.8;77.6
50166;BME280;36071;48.140;11.516;2022-07-30T02:17:02;95560.0;;;17.9;77.0
50166;BME280;36071;48.140;11.516;2022-07-30T02:22:03;95560.0;;;17.9;77.5
50166;BME280;36071;48.140;11.516;2022-07-30T02:27:07;95560.0;;;17.9;77.7
50166;BME280;36071;48.140;11.516;2022-07-30T02:32:03;95560.0;;;18.0;76.4
50166;BME280;36071;48.140;11.516;2022-07-30T02:37:02;95560.0;;;17.8;77.3
50166;BME280;36071;48.140;11.516;2022-07-30T02:42:02;95570.0;;;17.9;77.0
50166;BME280;36071;48.140;11.516;2022-07-30T02:47:02;95570.0;;;17.9;77.1
50166;BME280;36071;48.140;11.516;2022-07-30T02:52:02;95560.0;;;17.9;77.0
50166;BME280;36071;48.140;11.516;2022-07-30T02:57:02;95560.0;;;17.8;76.9
50166;BME280;36071;48.140;11.516;2022-07-30T03:02:02;95550.0;;;17.8;77.0
50166;BME280;36071;48.140;11.516;2022-07-30T03:07:02;95550.0;;;17.8;77.4
50166;BME280;36071;48.140;11.516;2022-07-30T03:12:02;95540.0;;;17.8;77.3
50166;BME280;36071;48.140;11.516;2022-07-30T03:17:02;95550.0;;;17.8;76.0
50166;BME280;36071;48.140;11.516;2022-07-30T03:22:02;95540.0;;;17.8;76.3
50166;BME280;36071;48.140;11.516;2022-07-30T03:27:02;95550.0;;;17.8;77.0
50166;BME280;36071;48.140;11.516;2022-07-30T03:32:02;95540.0;;;17.9;76.3
50166;BME280;36071;48.140;11.516;2022-07-30T03:37:03;95550.0;;;17.8;76.5
50166;BME280;36071;48.140;11.516;2022-07-30T03:42:02;95560.0;;;17.9;76.2
50166;BME280;36071;48.140;11.516;2022-07-30T03:47:03;95560.0;;;17.8;76.5
50166;BME280;36071;48.140;11.516;2022-07-30T03:52:02;95560.0;;;17.9;76.1
50166;BME280;36071;48.140;11.516;2022-07-30T03:57:03;95570.0;;;17.9;76.0
50166;BME280;36071;48.140;11.516;2022-07-30T04:02:02;95570.0;;;17.9;76.2
50166;BME280;36071;48.140;11.516;2022-07-30T04:07:02;95580.0;;;17.8;76.8
50166;BME280;36071;48.140;11.516;2022-07-30T04:12:02;95590.0;;;17.9;76.2
50166;BME280;36071;48.140;11.516;2022-07-30T04:17:02;95590.0;;;17.9;76.3
50166;BME280;36071;48.140;11.516;2022-07-30T04:22:02;95610.0;;;17.9;76.3
50166;BME280;36071;48.140;11.516;2022-07-30T04:27:02;95610.0;;;18.0;76.4
50166;BME280;36071;48.140;11.516;2022-07-30T04:32:02;95620.0;;;18.0;76.6
50166;BME280;36071;48.140;11.516;2022-07-30T04:37:02;95610.0;;;18.0;76.2
50166;BME280;36071;48.140;11.516;2022-07-30T04:42:02;95610.0;;;17.9;76.3
50166;BME280;36071;48.140;11.516;2022-07-30T04:47:02;95630.0;;;17.9;76.8
50166;BME280;36071;48.140;11.516;2022-07-30T04:52:02;95630.0;;;17.9;76.2
50166;BME280;36071;48.140;11.516;2022-07-30T04:57:02;95630.0;;;17.9;75.2
50166;BME280;36071;48.140;11.516;2022-07-30T05:02:02;95630.0;;;18.0;74.6
50166;BME280;36071;48.140;11.516;2022-07-30T05:07:02;95630.0;;;18.0;74.5
50166;BME280;36071;48.140;11.516;2022-07-30T05:12:02;95630.0;;;18.0;74.1
50166;BME280;36071;48.140;11.516;2022-07-30T05:17:02;95630.0;;;18.1;74.0
50166;BME280;36071;48.140;11.516;2022-07-30T05:22:02;95630.0;;;18.1;73.9
50166;BME280;36071;48.140;11.516;2022-07-30T05:27:02;95640.0;;;18.1;73.2
50166;BME280;36071;48.140;11.516;2022-07-30T05:32:02;95650.0;;;18.1;73.8
50166;BME280;36071;48.140;11.516;2022-07-30T05:37:02;95650.0;;;18.2;73.1
50166;BME280;36071;48.140;11.516;2022-07-30T05:42:02;95650.0;;;18.2;73.0
50166;BME280;36071;48.140;11.516;2022-07-30T05:47:02;95650.0;;;18.3;72.7
50166;BME280;36071;48.140;11.516;2022-07-30T05:52:02;95660.0;;;18.3;73.2
50166;BME280;36071;48.140;11.516;2022-07-30T05:57:02;95670.0;;;18.3;72.4
50166;BME280;36071;48.140;11.516;2022-07-30T06:02:02;95660.0;;;18.3;72.4
50166;BME280;36071;48.140;11.516;2022-07-30T06:07:02;95670.0;;;18.4;71.7
50166;BME280;36071;48.140;11.516;2022-07-30T06:12:02;95670.0;;;18.4;71.5
50166;BME280;36071;48.140;11.516;2022-07-30T06:17:02;95680.0;;;18.4;71.6
50166;BME280;36071;48.140;11.516;2022-07-30T06:22:02;95670.0;;;18.5;71.7
50166;BME280;36071;48.140;11.516;2022-07-30T06:27:02;95680.0;;;18.5;70.4
50166;BME280;36071;48.140;11.516;2022-07-30T06:32:02;95690.0;;;18.6;70.2
50166;BME280;36071;48.140;11.516;2022-07-30T06:37:02;95690.0;;;18.7;69.8
50166;BME280;36071;48.140;11.516;2022-07-30T06:42:02;95700.0;;;18.6;70.3
50166;BME280;36071;48.140;11.516;2022-07-30T06:47:02;95700.0;;;18.7;69.9
50166;BME280;36071;48.140;11.516;2022-07-30T06:52:03;95710.0;;;18.7;69.6
50166;BME280;36071;48.140;11.516;2022-07-30T06:57:02;95720.0;;;18.8;69.5
50166;BME280;36071;48.140;11.516;2022-07-30T07:02:02;95720.0;;;19.0;68.6
50166;BME280;36071;48.140;11.516;2022-07-30T07:07:02;95720.0;;;19.1;67.2
50166;BME280;36071;48.140;11.516;2022-07-30T07:12:02;95710.0;;;19.2;66.4
50166;BME280;36071;48.140;11.516;2022-07-30T07:17:02;95710.0;;;19.3;66.4
50166;BME280;36071;48.140;11.516;2022-07-30T07:22:02;95710.0;;;19.4;65.7
50166;BME280;36071;48.140;11.516;2022-07-30T07:27:02;95710.0;;;19.5;65.5
50166;BME280;36071;48.140;11.516;2022-07-30T07:32:03;95720.0;;;19.6;65.7
50166;BME280;36071;48.140;11.516;2022-07-30T07:37:02;95720.0;;;19.7;64.8
50166;BME280;36071;48.140;11.516;2022-07-30T07:42:02;95710.0;;;19.9;64.3
50166;BME280;36071;48.140;11.516;2022-07-30T07:47:02;95710.0;;;20.0;64.1
50166;BME280;36071;48.140;11.516;2022-07-30T07:52:02;95700.0;;;20.2;63.5
50166;BME280;36071;48.140;11.516;2022-07-30T07:57:02;95710.0;;;20.3;63.5
50166;BME280;36071;48.140;11.516;2022-07-30T08:02:02;95700.0;;;20.4;62.0
50166;BME280;36071;48.140;11.516;2022-07-30T08:07:02;95710.0;;;20.6;60.9
50166;BME280;36071;48.140;11.516;2022-07-30T08:12:02;95700.0;;;21.0;58.1
50166;BME280;36071;48.140;11.516;2022-07-30T08:17:02;95720.0;;;21.6;56.8
50166;BME280;36071;48.140;11.516;2022-07-30T08:22:02;95710.0;;;21.8;55.1
50166;BME280;36071;48.140;11.516;2022-07-30T08:27:02;95710.0;;;22.0;55.1
50166;BME280;36071;48.140;11.516;2022-07-30T08:32:02;95710.0;;;22.0;54.7
50166;BME280;36071;48.140;11.516;2022-07-30T08:37:02;95710.0;;;22.5;53.7
50166;BME280;36071;48.140;11.516;2022-07-30T08:42:03;95710.0;;;22.9;51.8
50166;BME280;36071;48.140;11.516;2022-07-30T08:47:02;95710.0;;;22.3;52.8
50166;BME280;36071;48.140;11.516;2022-07-30T08:52:03;95720.0;;;23.1;50.6
50166;BME280;36071;48.140;11.516;2022-07-30T08:57:02;95710.0;;;23.4;49.6
50166;BME280;36071;48.140;11.516;2022-07-30T09:02:02;95710.0;;;23.8;47.6
50166;BME280;36071;48.140;11.516;2022-07-30T09:07:02;95710.0;;;23.9;47.5
50166;BME280;36071;48.140;11.516;2022-07-30T09:12:03;95700.0;;;24.2;46.8
50166;BME280;36071;48.140;11.516;2022-07-30T09:17:02;95710.0;;;24.2;46.3
50166;BME280;36071;48.140;11.516;2022-07-30T09:22:02;95700.0;;;24.2;45.8
50166;BME280;36071;48.140;11.516;2022-07-30T09:27:02;95710.0;;;23.8;46.1
50166;BME280;36071;48.140;11.516;2022-07-30T09:32:04;95720.0;;;24.0;45.7
50166;BME280;36071;48.140;11.516;2022-07-30T09:37:03;95720.0;;;23.9;45.6
50166;BME280;36071;48.140;11.516;2022-07-30T09:42:03;95710.0;;;24.3;45.0
50166;BME280;36071;48.140;11.516;2022-07-30T09:47:02;95710.0;;;24.6;44.2
50166;BME280;36071;48.140;11.516;2022-07-30T09:52:02;95710.0;;;24.9;42.9
50166;BME280;36071;48.140;11.516;2022-07-30T09:57:03;95720.0;;;24.8;42.6
50166;BME280;36071;48.140;11.516;2022-07-30T10:02:02;95730.0;;;24.7;42.3
50166;BME280;36071;48.140;11.516;2022-07-30T10:07:02;95700.0;;;25.0;41.5
50166;BME280;36071;48.140;11.516;2022-07-30T10:12:03;95710.0;;;24.5;40.5
50166;BME280;36071;48.140;11.516;2022-07-30T10:17:03;95700.0;;;25.1;39.9
50166;BME280;36071;48.140;11.516;2022-07-30T10:22:02;95700.0;;;25.7;37.9
50166;BME280;36071;48.140;11.516;2022-07-30T10:27:02;95710.0;;;26.1;37.8
50166;BME280;36071;48.140;11.516;2022-07-30T10:32:03;95710.0;;;26.5;37.1
50166;BME280;36071;48.140;11.516;2022-07-30T10:37:03;95700.0;;;26.5;35.6
50166;BME280;36071;48.140;11.516;2022-07-30T10:42:06;95710.0;;;25.5;36.3
50166;BME280;36071;48.140;11.516;2022-07-30T10:47:03;95710.0;;;26.1;37.5
50166;BME280;36071;48.140;11.516;2022-07-30T10:52:02;95710.0;;;26.1;35.5
50166;BME280;36071;48.140;11.516;2022-07-30T10:57:03;95710.0;;;26.2;36.5
50166;BME280;36071;48.140;11.516;2022-07-30T11:02:06;95710.0;;;26.6;35.3
50166;BME280;36071;48.140;11.516;2022-07-30T11:07:38;95710.0;;;27.3;35.1
50166;BME280;36071;48.140;11.516;2022-07-30T11:12:03;95710.0;;;27.0;35.2
50166;BME280;36071;48.140;11.516;2022-07-30T11:17:02;95700.0;;;26.9;34.4
50166;BME280;36071;48.140;11.516;2022-07-30T11:22:21;95710.0;;;26.6;35.2
50166;BME280;36071;48.140;11.516;2022-07-30T11:27:02;95690.0;;;26.3;35.6
50166;BME280;36071;48.140;11.516;2022-07-30T11:32:26;95700.0;;;26.9;34.9
50166;BME280;36071;48.140;11.516;2022-07-30T11:37:03;95710.0;;;27.1;34.8
50166;BME280;36071;48.140;11.516;2022-07-30T11:42:25;95700.0;;;26.2;35.5
50166;BME280;36071;48.140;11.516;2022-07-30T11:47:02;95710.0;;;26.3;36.3
50166;BME280;36071;48.140;11.516;2022-07-30T11:52:02;95720.0;;;25.5;37.1
50166;BME280;36071;48.140;11.516;2022-07-30T11:57:02;95730.0;;;25.0;38.1
50166;BME280;36071;48.140;11.516;2022-07-30T12:02:02;95710.0;;;25.6;37.0
50166;BME280;36071;48.140;11.516;2022-07-30T12:07:02;95700.0;;;25.9;36.1
50166;BME280;36071;48.140;11.516;2022-07-30T12:12:19;95710.0;;;25.8;35.5
50166;BME280;36071;48.140;11.516;2022-07-30T12:17:02;95710.0;;;26.1;34.4
50166;BME280;36071;48.140;11.516;2022-07-30T12:22:02;95710.0;;;26.6;32.9
50166;BME280;36071;48.140;11.516;2022-07-30T12:27:03;95700.0;;;26.7;33.2
50166;BME280;36071;48.140;11.516;2022-07-30T12:32:02;95710.0;;;26.5;33.5
50166;BME280;36071;48.140;11.516;2022-07-30T12:37:06;95700.0;;;26.9;31.9
50166;BME280;36071;48.140;11.516;2022-07-30T12:42:02;95690.0;;;27.0;31.6
50166;BME280;36071;48.140;11.516;2022-07-30T12:47:03;95700.0;;;27.0;32.1
50166;BME280;36071;48.140;11.516;2022-07-30T12:52:02;95690.0;;;26.9;31.9
50166;BME280;36071;48.140;11.516;2022-07-30T12:57:04;95690.0;;;27.1;31.9
50166;BME280;36071;48.140;11.516;2022-07-30T13:02:02;95690.0;;;26.9;31.6
50166;BME280;36071;48.140;11.516;2022-07-30T13:07:03;95690.0;;;27.2;31.7
50166;BME280;36071;48.140;11.516;2022-07-30T13:12:03;95690.0;;;27.2;31.9
50166;BME280;36071;48.140;11.516;2022-07-30T13:17:02;95680.0;;;27.2;31.4
50166;BME280;36071;48.140;11.516;2022-07-30T13:22:02;95680.0;;;27.2;31.3
50166;BME280;36071;48.140;11.516;2022-07-30T13:27:02;95690.0;;;27.2;30.4
50166;BME280;36071;48.140;11.516;2022-07-30T13:32:02;95690.0;;;27.1;30.9
50166;BME280;36071;48.140;11.516;2022-07-30T13:37:02;95690.0;;;27.3;30.3
50166;BME280;36071;48.140;11.516;2022-07-30T13:42:02;95680.0;;;27.2;31.1
50166;BME280;36071;48.140;11.516;2022-07-30T13:47:02;95680.0;;;27.0;31.3
50166;BME280;36071;48.140;11.516;2022-07-30T13:52:02;95660.0;;;27.0;30.6
50166;BME280;36071;48.140;11.516;2022-07-30T13:57:02;95680.0;;;27.0;30.7
50166;BME280;36071;48.140;11.516;2022-07-30T14:02:03;95680.0;;;27.2;30.9
50166;BME280;36071;48.140;11.516;2022-07-30T14:07:02;95690.0;;;27.0;30.7
50166;BME280;36071;48.140;11.516;2022-07-30T14:12:02;95680.0;;;27.0;30.6
50166;BME280;36071;48.140;11.516;2022-07-30T14:17:02;95670.0;;;27.2;30.4
50166;BME280;36071;48.140;11.516;2022-07-30T14:22:02;95660.0;;;27.4;30.3
50166;BME280;36071;48.140;11.516;2022-07-30T14:27:02;95650.0;;;27.4;30.2
50166;BME280;36071;48.140;11.516;2022-07-30T14:32:03;95660.0;;;27.4;30.4
50166;BME280;36071;48.140;11.516;2022-07-30T14:37:02;95650.0;;;27.2;30.2
50166;BME280;36071;48.140;11.516;2022-07-30T14:42:02;95650.0;;;27.0;30.1
50166;BME280;36071;48.140;11.516;2022-07-30T14:47:03;95640.0;;;27.5;30.8
50166;BME280;36071;48.140;11.516;2022-07-30T14:52:02;95640.0;;;27.1;30.5
50166;BME280;36071;48.140;11.516;2022-07-30T15:02:02;95650.0;;;27.0;30.3
50166;BME280;36071;48.140;11.516;2022-07-30T15:07:02;95650.0;;;27.1;30.9
50166;BME280;36071;48.140;11.516;2022-07-30T15:12:02;95640.0;;;27.0;30.8
50166;BME280;36071;48.140;11.516;2022-07-30T15:17:02;95640.0;;;26.9;31.3
50166;BME280;36071;48.140;11.516;2022-07-30T15:22:02;95650.0;;;26.9;31.0
50166;BME280;36071;48.140;11.516;2022-07-30T15:27:02;95650.0;;;26.9;30.6
50166;BME280;36071;48.140;11.516;2022-07-30T15:32:02;95670.0;;;26.9;30.5
50166;BME280;36071;48.140;11.516;2022-07-30T15:37:02;95660.0;;;26.8;31.1
50166;BME280;36071;48.140;11.516;2022-07-30T15:42:02;95650.0;;;27.0;31.5
50166;BME280;36071;48.140;11.516;2022-07-30T15:47:02;95650.0;;;26.8;31.0
50166;BME280;36071;48.140;11.516;2022-07-30T15:52:02;95640.0;;;26.6;31.0
50166;BME280;36071;48.140;11.516;2022-07-30T15:57:02;95650.0;;;26.7;31.3
50166;BME280;36071;48.140;11.516;2022-07-30T16:02:02;95640.0;;;26.7;31.3
50166;BME280;36071;48.140;11.516;2022-07-30T16:07:02;95640.0;;;26.7;31.4
50166;BME280;36071;48.140;11.516;2022-07-30T16:12:02;95640.0;;;26.5;31.4
50166;BME280;36071;48.140;11.516;2022-07-30T16:17:02;95640.0;;;26.3;31.4
50166;BME280;36071;48.140;11.516;2022-07-30T16:22:02;95640.0;;;26.2;31.3
50166;BME280;36071;48.140;11.516;2022-07-30T16:27:02;95650.0;;;26.5;31.0
50166;BME280;36071;48.140;11.516;2022-07-30T16:32:03;95650.0;;;26.5;31.2
50166;BME280;36071;48.140;11.516;2022-07-30T16:37:02;95650.0;;;26.4;31.7
50166;BME280;36071;48.140;11.516;2022-07-30T16:42:02;95640.0;;;26.4;30.7
50166;BME280;36071;48.140;11.516;2022-07-30T16:47:02;95640.0;;;26.2;31.4
50166;BME280;36071;48.140;11.516;2022-07-30T16:52:03;95640.0;;;26.3;31.0
50166;BME280;36071;48.140;11.516;2022-07-30T16:57:02;95640.0;;;26.3;30.9
50166;BME280;36071;48.140;11.516;2022-07-30T17:02:03;95640.0;;;26.2;31.4
50166;BME280;36071;48.140;11.516;2022-07-30T17:07:02;95640.0;;;26.2;31.3
50166;BME280;36071;48.140;11.516;2022-07-30T17:12:03;95650.0;;;26.1;31.5
50166;BME280;36071;48.140;11.516;2022-07-30T17:17:03;95670.0;;;26.0;31.6
50166;BME280;36071;48.140;11.516;2022-07-30T17:22:02;95670.0;;;25.9;32.6
50166;BME280;36071;48.140;11.516;2022-07-30T17:27:02;95660.0;;;25.9;33.9
50166;BME280;36071;48.140;11.516;2022-07-30T17:32:03;95680.0;;;25.8;34.2
50166;BME280;36071;48.140;11.516;2022-07-30T17:37:02;95670.0;;;25.7;33.9
50166;BME280;36071;48.140;11.516;2022-07-30T17:42:02;95690.0;;;25.6;34.1
50166;BME280;36071;48.140;11.516;2022-07-30T17:47:02;95680.0;;;25.6;33.8
50166;BME280;36071;48.140;11.516;2022-07-30T17:52:03;95690.0;;;25.6;34.2
50166;BME280;36071;48.140;11.516;2022-07-30T17:57:02;95700.0;;;25.6;33.9
50166;BME280;36071;48.140;11.516;2022-07-30T18:02:03;95700.0;;;25.4;33.8
50166;BME280;36071;48.140;11.516;2022-07-30T18:07:02;95700.0;;;25.5;34.0
50166;BME280;36071;48.140;11.516;2022-07-30T18:12:03;95700.0;;;25.4;34.3
50166;BME280;36071;48.140;11.516;2022-07-30T18:17:03;95700.0;;;25.4;34.5
50166;BME280;36071;48.140;11.516;2022-07-30T18:22:02;95710.0;;;25.1;34.6
50166;BME280;36071;48.140;11.516;2022-07-30T18:27:02;95700.0;;;24.8;39.2
50166;BME280;36071;48.140;11.516;2022-07-30T18:32:03;95750.0;;;24.7;46.3
50166;BME280;36071;48.140;11.516;2022-07-30T18:37:02;95760.0;;;23.9;44.1
50166;BME280;36071;48.140;11.516;2022-07-30T18:42:03;95790.0;;;22.9;51.6
50166;BME280;36071;48.140;11.516;2022-07-30T18:47:02;95770.0;;;22.9;49.3
50166;BME280;36071;48.140;11.516;2022-07-30T18:52:03;95760.0;;;22.5;50.6
50166;BME280;36071;48.140;11.516;2022-07-30T18:57:03;95770.0;;;22.5;50.8
50166;BME280;36071;48.140;11.516;2022-07-30T19:02:03;95760.0;;;22.4;50.7
50166;BME280;36071;48.140;11.516;2022-07-30T19:07:02;95750.0;;;22.3;53.6
50166;BME280;36071;48.140;11.516;2022-07-30T19:12:03;95770.0;;;22.3;55.6
50166;BME280;36071;48.140;11.516;2022-07-30T19:22:02;95770.0;;;22.2;56.0
50166;BME280;36071;48.140;11.516;2022-07-30T19:27:03;95770.0;;;22.3;55.9
50166;BME280;36071;48.140;11.516;2022-07-30T19:32:03;95770.0;;;22.2;57.1
50166;BME280;36071;48.140;11.516;2022-07-30T19:37:02;95780.0;;;22.2;57.9
50166;BME280;36071;48.140;11.516;2022-07-30T19:42:02;95760.0;;;22.0;58.4
50166;BME280;36071;48.140;11.516;2022-07-30T19:47:02;95790.0;;;22.0;59.3
50166;BME280;36071;48.140;11.516;2022-07-30T19:52:03;95790.0;;;21.9;60.2
50166;BME280;36071;48.140;11.516;2022-07-30T19:57:02;95790.0;;;21.8;60.9
50166;BME280;36071;48.140;11.516;2022-07-30T20:02:02;95790.0;;;21.8;62.5
50166;BME280;36071;48.140;11.516;2022-07-30T20:07:02;95800.0;;;21.8;62.6
50166;BME280;36071;48.140;11.516;2022-07-30T20:12:03;95790.0;;;21.8;62.9
50166;BME280;36071;48.140;11.516;2022-07-30T20:17:04;95800.0;;;21.8;62.7
50166;BME280;36071;48.140;11.516;2022-07-30T20:22:02;95800.0;;;21.4;62.9
50166;BME280;36071;48.140;11.516;2022-07-30T20:27:02;95800.0;;;21.3;62.7
50166;BME280;36071;48.140;11.516;2022-07-30T20:32:03;95800.0;;;21.3;62.8
50166;BME280;36071;48.140;11.516;2022-07-30T20:37:03;95810.0;;;21.2;63.0
50166;BME280;36071;48.140;11.516;2022-07-30T20:42:02;95800.0;;;21.2;63.0
50166;BME280;36071;48.140;11.516;2022-07-30T20:47:02;95800.0;;;21.2;63.4
50166;BME280;36071;48.140;11.516;2022-07-30T20:52:03;95810.0;;;21.1;63.5
50166;BME280;36071;48.140;11.516;2022-07-30T20:57:03;95820.0;;;21.0;64.0
50166;BME280;36071;48.140;11.516;2022-07-30T21:07:03;95820.0;;;20.8;63.6
50166;BME280;36071;48.140;11.516;2022-07-30T21:12:03;95820.0;;;20.7;63.9
50166;BME280;36071;48.140;11.516;2022-07-30T21:17:02;95810.0;;;20.6;64.0
50166;BME280;36071;48.140;11.516;2022-07-30T21:22:03;95810.0;;;20.5;63.7
50166;BME280;36071;48.140;11.516;2022-07-30T21:27:02;95820.0;;;20.6;63.2
50166;BME280;36071;48.140;11.516;2022-07-30T21:32:03;95810.0;;;20.6;62.8
50166;BME280;36071;48.140;11.516;2022-07-30T21:37:02;95820.0;;;20.5;64.2
50166;BME280;36071;48.140;11.516;2022-07-30T21:42:03;95830.0;;;20.4;66.5
50166;BME280;36071;48.140;11.516;2022-07-30T21:47:02;95830.0;;;20.4;66.3
50166;BME280;36071;48.140;11.516;2022-07-30T21:52:02;95830.0;;;20.3;66.0
50166;BME280;36071;48.140;11.516;2022-07-30T21:57:03;95830.0;;;20.2;67.1
50166;BME280;36071;48.140;11.516;2022-07-30T22:02:02;95830.0;;;20.4;64.6
50166;BME280;36071;48.140;11.516;2022-07-30T22:07:02;95850.0;;;20.3;66.9
50166;BME280;36071;48.140;11.516;2022-07-30T22:12:03;95850.0;;;20.3;64.4
50166;BME280;36071;48.140;11.516;2022-07-30T22:17:02;95850.0;;;20.3;65.6
50166;BME280;36071;48.140;11.516;2022-07-30T22:22:02;95850.0;;;20.3;66.5
50166;BME280;36071;48.140;11.516;2022-07-30T22:27:03;95850.0;;;20.1;64.6
50166;BME280;36071;48.140;11.516;2022-07-30T22:32:03;95840.0;;;20.1;65.5
50166;BME280;36071;48.140;11.516;2022-07-30T22:37:02;95840.0;;;20.0;65.2
50166;BME280;36071;48.140;11.516;2022-07-30T22:42:03;95830.0;;;20.0;65.1
50166;BME280;36071;48.140;11.516;2022-07-30T22:52:02;95830.0;;;20.0;65.2
50166;BME280;36071;48.140;11.516;2022-07-30T22:57:03;95830.0;;;19.9;64.7
50166;BME280;36071;48.140;11.516;2022-07-30T23:02:02;95830.0;;;19.8;65.6
50166;BME280;36071;48.140;11.516;2022-07-30T23:07:02;95830.0;;;19.7;66.2
50166;BME280;36071;48.140;11.516;2022-07-30T23:12:03;95830.0;;;19.5;67.3
50166;BME280;36071;48.140;11.516;2022-07-30T23:17:02;95830.0;;;19.5;67.5
50166;BME280;36071;48.140;11.516;2022-07-30T23:22:02;95830.0;;;19.4;67.7
50166;BME280;36071;48.140;11.516;2022-07-30T23:27:03;95830.0;;;19.5;67.0
50166;BME280;36071;48.140;11.516;2022-07-30T23:32:03;95830.0;;;19.3;68.0
50166;BME280;36071;48.140;11.516;2022-07-30T23:37:02;95830.0;;;19.4;67.6
50166;BME280;36071;48.140;11.516;2022-07-30T23:42:03;95830.0;;;19.4;67.4
50166;BME280;36071;48.140;11.516;2022-07-30T23:47:02;95820.0;;;19.3;67.9
50166;BME280;36071;48.140;11.516;2022-07-30T23:52:03;95830.0;;;19.3;68.3
50166;BME280;36071;48.140;11.516;2022-07-30T23:57:02;95830.0;;;19.3;67.8
